createdAt,value
2023-02-22T00:02:25.337Z,11.22
2023-02-22T00:04:53.495Z,11.20
2023-02-22T00:07:23.757Z,11.33
2023-02-22T00:09:53.516Z,11.43
2023-02-22T00:12:21.512Z,11.46
2023-02-22T00:14:51.222Z,11.50
2023-02-22T00:17:20.582Z,11.49
2023-02-22T00:19:50.119Z,11.48
2023-02-22T00:22:19.123Z,11.47
2023-02-22T00:24:48.384Z,11.44
2023-02-22T00:27:18.001Z,11.44
2023-02-22T00:29:46.457Z,11.48
2023-02-22T00:32:15.436Z,11.57
2023-02-22T00:34:43.803Z,11.53
2023-02-22T00:37:12.410Z,11.58
2023-02-22T00:39:40.621Z,11.63
2023-02-22T00:42:09.559Z,11.67
2023-02-22T00:44:38.940Z,11.67
2023-02-22T00:47:07.162Z,11.71
2023-02-22T00:49:35.657Z,11.75
2023-02-22T00:52:04.764Z,11.69
2023-02-22T00:54:33.148Z,11.78
2023-02-22T00:57:01.581Z,11.73
2023-02-22T00:59:31.221Z,11.73
2023-02-22T01:02:00.895Z,11.77
2023-02-22T01:04:29.857Z,11.82
2023-02-22T01:07:00.664Z,11.75
2023-02-22T01:09:28.936Z,11.71
2023-02-22T01:11:58.293Z,11.71
2023-02-22T01:14:28.007Z,11.70
2023-02-22T01:16:57.179Z,11.70
2023-02-22T01:19:26.800Z,11.71
2023-02-22T01:21:55.638Z,11.77
2023-02-22T01:24:23.773Z,11.78
2023-02-22T01:26:53.594Z,11.77
2023-02-22T01:29:22.556Z,11.77
2023-02-22T01:31:55.131Z,11.80
2023-02-22T01:34:24.156Z,11.68
2023-02-22T01:36:53.665Z,11.77
2023-02-22T01:39:21.727Z,11.81
2023-02-22T01:41:49.720Z,11.83
2023-02-22T01:44:27.263Z,11.85
2023-02-22T01:46:55.735Z,11.78
2023-02-22T01:49:25.652Z,11.73
2023-02-22T01:51:57.973Z,11.79
2023-02-22T01:54:28.837Z,11.85
2023-02-22T01:57:06.094Z,11.95
2023-02-22T01:59:37.555Z,11.96
2023-02-22T02:02:06.234Z,11.92
2023-02-22T02:04:35.405Z,12.00
2023-02-22T02:07:08.937Z,12.01
2023-02-22T02:09:41.045Z,12.00
2023-02-22T02:12:12.347Z,12.06
2023-02-22T02:14:42.558Z,12.04
2023-02-22T02:17:13.525Z,11.89
2023-02-22T02:19:52.571Z,11.48
2023-02-22T02:22:34.635Z,11.73
2023-02-22T02:25:37.807Z,11.87
2023-02-22T02:28:35.881Z,12.07
2023-02-22T02:31:55.147Z,12.21
2023-02-22T02:34:34.332Z,12.26
2023-02-22T02:37:11.207Z,12.36
2023-02-22T02:39:47.707Z,12.40
2023-02-22T02:42:22.316Z,12.47
2023-02-22T02:44:57.592Z,12.48
2023-02-22T02:47:29.005Z,12.54
2023-02-22T02:50:04.304Z,12.55
2023-02-22T02:52:35.654Z,12.56
2023-02-22T02:55:05.739Z,12.56
2023-02-22T02:57:33.801Z,12.61
2023-02-22T03:00:01.984Z,12.62
2023-02-22T03:02:49.263Z,12.58
2023-02-22T03:05:35.689Z,12.59
2023-02-22T03:08:10.979Z,12.57
2023-02-22T03:10:51.897Z,12.53
2023-02-22T03:13:30.958Z,12.57
2023-02-22T03:16:13.714Z,12.61
2023-02-22T03:18:51.970Z,12.55
2023-02-22T03:21:31.068Z,12.61
2023-02-22T03:24:07.216Z,12.64
2023-02-22T03:26:40.292Z,12.64
2023-02-22T03:29:11.846Z,12.64
2023-02-22T03:31:45.462Z,12.60
2023-02-22T03:34:17.263Z,12.63
2023-02-22T03:36:51.705Z,12.63
2023-02-22T03:39:21.370Z,12.57
2023-02-22T03:41:52.548Z,12.54
2023-02-22T03:44:26.439Z,12.44
2023-02-22T03:46:57.885Z,12.27
2023-02-22T03:49:35.198Z,12.38
2023-02-22T03:52:06.829Z,12.46
2023-02-22T03:54:35.618Z,12.47
2023-02-22T03:57:11.224Z,12.44
2023-02-22T03:59:39.987Z,12.46
2023-02-22T04:02:08.347Z,12.50
2023-02-22T04:04:36.413Z,12.54
2023-02-22T04:07:05.811Z,12.55
2023-02-22T04:09:33.995Z,12.27
2023-02-22T04:12:02.278Z,12.34
2023-02-22T04:14:30.428Z,12.39
2023-02-22T04:16:58.510Z,12.45
2023-02-22T04:19:26.562Z,12.49
2023-02-22T04:21:54.571Z,12.49
2023-02-22T04:24:24.102Z,12.48
2023-02-22T04:26:52.124Z,12.50
2023-02-22T04:29:20.286Z,12.50
2023-02-22T04:31:48.583Z,12.53
2023-02-22T04:34:16.656Z,12.48
2023-02-22T04:36:45.628Z,12.44
2023-02-22T04:39:13.774Z,12.45
2023-02-22T04:41:43.279Z,12.49
2023-02-22T04:44:11.346Z,12.49
2023-02-22T04:46:39.528Z,12.48
2023-02-22T04:49:07.648Z,12.48
2023-02-22T04:51:35.983Z,12.47
2023-02-22T04:54:04.039Z,12.50
2023-02-22T04:56:32.071Z,12.50
2023-02-22T04:59:01.716Z,12.51
2023-02-22T05:01:33.688Z,12.41
2023-02-22T05:04:03.265Z,12.35
2023-02-22T05:06:31.335Z,12.37
2023-02-22T05:08:59.613Z,12.36
2023-02-22T05:11:27.704Z,12.38
2023-02-22T05:13:56.965Z,12.31
2023-02-22T05:16:26.525Z,12.40
2023-02-22T05:18:54.638Z,12.41
2023-02-22T05:21:23.725Z,12.42
2023-02-22T05:23:51.960Z,12.43
2023-02-22T05:26:20.172Z,12.50
2023-02-22T05:28:48.544Z,12.49
2023-02-22T05:31:17.691Z,12.53
2023-02-22T05:33:48.637Z,12.50
2023-02-22T05:36:17.043Z,12.52
2023-02-22T05:38:45.126Z,12.37
2023-02-22T05:41:14.052Z,12.39
2023-02-22T05:43:42.397Z,12.28
2023-02-22T05:46:10.500Z,12.26
2023-02-22T05:48:38.926Z,12.26
2023-02-22T05:51:09.758Z,12.13
2023-02-22T05:53:38.307Z,12.16
2023-02-22T05:56:07.199Z,12.15
2023-02-22T05:58:35.271Z,12.07
2023-02-22T06:01:03.667Z,12.07
2023-02-22T06:03:31.696Z,12.03
2023-02-22T06:05:59.790Z,12.09
2023-02-22T06:08:29.223Z,12.02
2023-02-22T06:10:57.560Z,12.10
2023-02-22T06:13:25.616Z,12.16
2023-02-22T06:15:53.698Z,12.17
2023-02-22T06:18:21.816Z,12.20
2023-02-22T06:20:50.967Z,12.22
2023-02-22T06:23:19.018Z,12.18
2023-02-22T06:25:48.424Z,12.23
2023-02-22T06:28:16.738Z,12.32
2023-02-22T06:30:44.936Z,12.30
2023-02-22T06:33:13.338Z,12.29
2023-02-22T06:35:41.498Z,12.34
2023-02-22T06:38:09.833Z,12.37
2023-02-22T06:40:37.883Z,12.33
2023-02-22T06:43:07.466Z,12.28
2023-02-22T06:45:35.583Z,12.33
2023-02-22T06:48:04.010Z,12.33
2023-02-22T06:50:34.892Z,12.30
2023-02-22T06:53:04.312Z,12.26
2023-02-22T06:55:34.662Z,12.17
2023-02-22T06:58:04.850Z,12.20
2023-02-22T07:00:34.347Z,12.22
2023-02-22T07:03:05.113Z,12.19
2023-02-22T07:05:33.258Z,12.23
2023-02-22T07:08:04.913Z,12.15
2023-02-22T07:10:35.055Z,12.14
2023-02-22T07:13:04.027Z,12.18
2023-02-22T07:15:36.603Z,12.23
2023-02-22T07:18:05.710Z,12.26
2023-02-22T07:20:34.292Z,12.30
2023-02-22T07:23:02.677Z,12.17
2023-02-22T07:25:30.748Z,12.23
2023-02-22T07:27:59.698Z,12.31
2023-02-22T07:30:31.156Z,12.32
2023-02-22T07:33:02.381Z,12.33
2023-02-22T07:35:32.245Z,12.34
2023-02-22T07:38:00.472Z,12.41
2023-02-22T07:40:28.967Z,12.45
2023-02-22T07:42:59.552Z,12.50
2023-02-22T07:45:30.297Z,12.51
2023-02-22T07:48:00.905Z,12.55
2023-02-22T07:50:32.292Z,12.55
2023-02-22T07:53:02.652Z,12.49
2023-02-22T07:55:32.324Z,12.51
2023-02-22T07:58:02.064Z,12.52
2023-02-22T08:00:31.882Z,12.53
2023-02-22T08:03:02.984Z,12.37
2023-02-22T08:05:32.719Z,12.45
2023-02-22T08:08:00.833Z,12.46
2023-02-22T08:10:29.155Z,12.50
2023-02-22T08:12:57.172Z,12.50
2023-02-22T08:15:28.583Z,12.55
2023-02-22T08:17:57.355Z,12.66
2023-02-22T08:20:27.065Z,12.77
2023-02-22T08:22:55.977Z,12.80
2023-02-22T08:25:27.801Z,12.92
2023-02-22T08:28:01.364Z,13.00
2023-02-22T08:30:31.748Z,13.04
2023-02-22T08:33:00.631Z,12.95
2023-02-22T08:35:31.818Z,13.09
2023-02-22T08:38:02.552Z,13.03
2023-02-22T08:40:32.623Z,13.02
2023-02-22T08:43:01.757Z,13.11
2023-02-22T08:45:30.571Z,13.13
2023-02-22T08:47:59.637Z,13.17
2023-02-22T08:50:32.162Z,13.23
2023-02-22T08:53:01.560Z,13.24
2023-02-22T08:55:32.307Z,13.31
2023-02-22T08:58:01.513Z,13.30
2023-02-22T09:00:33.203Z,13.36
2023-02-22T09:03:01.706Z,13.40
2023-02-22T09:05:32.081Z,13.41
2023-02-22T09:08:00.518Z,13.47
2023-02-22T09:10:31.574Z,13.50
2023-02-22T09:13:01.583Z,13.54
2023-02-22T09:15:30.535Z,13.57
2023-02-22T09:17:58.632Z,13.63
2023-02-22T09:20:27.058Z,13.68
2023-02-22T09:22:56.803Z,13.60
2023-02-22T09:25:25.064Z,13.52
2023-02-22T09:27:54.677Z,13.42
2023-02-22T09:30:27.383Z,13.35
2023-02-22T09:32:57.495Z,13.44
2023-02-22T09:35:27.432Z,13.60
2023-02-22T09:37:58.745Z,13.67
2023-02-22T09:40:30.253Z,13.63
2023-02-22T09:43:09.147Z,13.70
2023-02-22T09:45:48.338Z,13.77
2023-02-22T09:48:22.399Z,13.87
2023-02-22T09:50:54.199Z,13.92
2023-02-22T09:53:30.524Z,13.98
2023-02-22T09:56:03.542Z,13.98
2023-02-22T09:58:35.450Z,14.04
2023-02-22T10:01:15.517Z,14.07
2023-02-22T10:03:52.134Z,14.05
2023-02-22T10:06:23.763Z,14.12
2023-02-22T10:08:56.763Z,14.16
2023-02-22T10:11:53.178Z,14.23
2023-02-22T10:14:45.891Z,14.24
2023-02-22T10:17:24.365Z,14.33
2023-02-22T10:20:04.965Z,14.38
2023-02-22T10:22:43.470Z,14.47
2023-02-22T10:25:18.062Z,14.55
2023-02-22T10:27:52.706Z,14.54
2023-02-22T10:30:25.436Z,14.48
2023-02-22T10:32:59.525Z,14.59
2023-02-22T10:35:30.996Z,14.74
2023-02-22T10:38:05.401Z,14.75
2023-02-22T10:40:35.035Z,14.88
2023-02-22T10:43:05.478Z,14.98
2023-02-22T10:45:37.171Z,14.91
2023-02-22T10:48:11.686Z,14.85
2023-02-22T10:50:41.613Z,14.90
2023-02-22T10:53:10.610Z,15.04
2023-02-22T10:56:19.009Z,15.16
2023-02-22T10:58:50.772Z,15.10
2023-02-22T11:01:38.197Z,14.92
2023-02-22T11:04:14.517Z,14.95
2023-02-22T11:06:44.431Z,15.05
2023-02-22T11:09:15.816Z,15.01
2023-02-22T11:11:47.796Z,15.15
2023-02-22T11:14:27.736Z,15.11
2023-02-22T11:16:57.862Z,15.28
2023-02-22T11:19:28.158Z,15.19
2023-02-22T11:21:59.218Z,15.14
2023-02-22T11:24:37.363Z,15.18
2023-02-22T11:27:28.479Z,15.01
2023-02-22T11:30:20.813Z,14.81
2023-02-22T11:32:53.508Z,15.02
2023-02-22T11:35:32.999Z,15.09
2023-02-22T11:38:17.758Z,15.36
2023-02-22T11:40:46.352Z,15.32
2023-02-22T11:43:19.823Z,15.41
2023-02-22T11:46:03.328Z,15.59
2023-02-22T11:48:36.780Z,15.50
2023-02-22T11:51:17.537Z,15.65
2023-02-22T11:54:13.844Z,15.47
2023-02-22T11:56:46.189Z,15.48
2023-02-22T11:59:26.783Z,15.27
2023-02-22T12:02:00.126Z,15.27
2023-02-22T12:04:56.728Z,15.03
2023-02-22T12:07:42.259Z,14.83
2023-02-22T12:10:22.873Z,14.85
2023-02-22T12:13:06.855Z,14.77
2023-02-22T12:15:45.622Z,14.68
2023-02-22T12:18:22.230Z,14.71
2023-02-22T12:20:56.809Z,14.81
2023-02-22T12:23:32.014Z,14.88
2023-02-22T12:26:05.460Z,14.90
2023-02-22T12:28:38.028Z,14.71
2023-02-22T12:31:20.271Z,14.88
2023-02-22T12:33:56.449Z,15.09
2023-02-22T12:36:34.267Z,15.47
2023-02-22T12:39:07.681Z,15.64
2023-02-22T12:41:45.951Z,15.68
2023-02-22T12:44:20.743Z,15.71
2023-02-22T12:46:53.402Z,15.00
2023-02-22T12:49:31.705Z,14.74
2023-02-22T12:52:20.581Z,14.59
2023-02-22T12:54:57.087Z,14.45
2023-02-22T12:57:42.422Z,14.35
2023-02-22T13:00:20.413Z,14.11
2023-02-22T13:02:58.121Z,14.01
2023-02-22T13:05:28.876Z,13.96
2023-02-22T13:08:14.609Z,13.96
2023-02-22T13:11:11.701Z,14.09
2023-02-22T13:13:55.989Z,14.17
2023-02-22T13:16:37.137Z,14.34
2023-02-22T13:19:22.550Z,14.41
2023-02-22T13:21:58.169Z,14.38
2023-02-22T13:24:30.503Z,14.41
2023-02-22T13:27:02.859Z,14.34
2023-02-22T13:29:35.927Z,14.42
2023-02-22T13:32:23.833Z,14.36
2023-02-22T13:35:10.396Z,14.37
2023-02-22T13:38:12.236Z,14.35
2023-02-22T13:41:12.192Z,14.45
2023-02-22T13:44:07.613Z,14.57
2023-02-22T13:46:56.650Z,14.60
2023-02-22T13:49:45.879Z,14.49
2023-02-22T13:52:18.697Z,14.58
2023-02-22T13:54:51.519Z,14.51
2023-02-22T13:57:22.318Z,14.35
2023-02-22T13:59:50.400Z,14.14
2023-02-22T14:02:36.870Z,14.07
2023-02-22T14:05:36.411Z,14.18
2023-02-22T14:08:06.240Z,14.09
2023-02-22T14:10:47.175Z,14.09
2023-02-22T14:13:19.407Z,13.97
2023-02-22T14:16:18.665Z,13.94
2023-02-22T14:18:50.613Z,13.89
2023-02-22T14:21:20.877Z,13.98
2023-02-22T14:23:51.764Z,13.99
2023-02-22T14:26:27.280Z,13.76
2023-02-22T14:28:58.206Z,13.62
2023-02-22T14:31:36.375Z,13.73
2023-02-22T14:34:11.377Z,13.72
2023-02-22T14:36:50.880Z,13.68
2023-02-22T14:39:32.694Z,13.88
2023-02-22T14:42:07.065Z,13.73
2023-02-22T14:44:40.752Z,13.60
2023-02-22T14:47:20.164Z,13.36
2023-02-22T14:49:52.091Z,13.35
2023-02-22T14:52:24.241Z,13.35
2023-02-22T14:55:17.116Z,13.41
2023-02-22T14:57:59.216Z,13.37
2023-02-22T15:00:32.719Z,13.36
2023-02-22T15:03:01.867Z,13.43
2023-02-22T15:05:32.215Z,13.59
2023-02-22T15:08:03.928Z,13.57
2023-02-22T15:10:42.990Z,13.77
2023-02-22T15:13:18.151Z,13.83
2023-02-22T15:15:49.486Z,13.88
2023-02-22T15:18:25.691Z,14.05
2023-02-22T15:20:58.201Z,14.20
2023-02-22T15:23:30.915Z,14.19
2023-02-22T15:26:00.383Z,14.44
2023-02-22T15:28:32.071Z,14.62
2023-02-22T15:31:23.988Z,14.53
2023-02-22T15:33:55.002Z,14.54
2023-02-22T15:36:26.705Z,14.43
2023-02-22T15:38:57.064Z,14.45
2023-02-22T15:41:32.552Z,14.49
2023-02-22T15:44:21.326Z,14.54
2023-02-22T15:46:52.343Z,14.35
2023-02-22T15:49:23.383Z,14.36
2023-02-22T15:52:06.020Z,14.28
2023-02-22T15:54:44.417Z,13.85
2023-02-22T15:57:18.613Z,13.74
2023-02-22T15:59:51.632Z,13.97
2023-02-22T16:02:33.734Z,14.09
2023-02-22T16:05:05.565Z,14.08
2023-02-22T16:07:34.434Z,14.11
2023-02-22T16:10:09.351Z,14.19
2023-02-22T16:12:38.896Z,14.22
2023-02-22T16:15:16.797Z,14.20
2023-02-22T16:17:59.999Z,14.21
2023-02-22T16:20:34.344Z,14.26
2023-02-22T16:23:23.311Z,14.27
2023-02-22T16:26:04.401Z,14.34
2023-02-22T16:28:35.869Z,14.26
2023-02-22T16:31:04.761Z,14.32
2023-02-22T16:33:34.963Z,14.37
2023-02-22T16:36:08.232Z,14.37
2023-02-22T16:38:38.655Z,14.38
2023-02-22T16:41:08.587Z,14.32
2023-02-22T16:43:38.147Z,14.35
2023-02-22T16:46:07.393Z,14.36
2023-02-22T16:48:38.225Z,14.19
2023-02-22T16:51:17.663Z,13.99
2023-02-22T16:53:46.176Z,13.67
2023-02-22T16:56:17.872Z,13.46
2023-02-22T16:58:50.904Z,13.44
2023-02-22T17:01:19.786Z,13.42
2023-02-22T17:03:48.059Z,13.39
2023-02-22T17:06:16.464Z,13.53
2023-02-22T17:08:45.398Z,13.52
2023-02-22T17:11:15.794Z,13.51
2023-02-22T17:13:45.762Z,13.58
2023-02-22T17:16:16.915Z,13.63
2023-02-22T17:18:46.067Z,13.68
2023-02-22T17:21:16.754Z,13.59
2023-02-22T17:23:46.136Z,13.50
2023-02-22T17:26:15.601Z,13.38
2023-02-22T17:28:44.340Z,13.37
2023-02-22T17:31:23.134Z,13.47
2023-02-22T17:33:52.550Z,13.50
2023-02-22T17:36:20.946Z,13.45
2023-02-22T17:38:50.005Z,13.38
2023-02-22T17:41:18.493Z,13.43
2023-02-22T17:43:46.502Z,13.43
2023-02-22T17:46:15.012Z,13.47
2023-02-22T17:48:44.557Z,13.42
2023-02-22T17:51:14.024Z,13.41
2023-02-22T17:53:42.368Z,13.44
2023-02-22T17:56:13.490Z,13.46
2023-02-22T17:58:42.154Z,13.13
2023-02-22T18:01:21.086Z,13.03
2023-02-22T18:03:50.673Z,13.12
2023-02-22T18:06:24.607Z,13.21
2023-02-22T18:08:56.266Z,13.22
2023-02-22T18:11:26.938Z,13.17
2023-02-22T18:13:56.134Z,13.21
2023-02-22T18:16:25.781Z,13.20
2023-02-22T18:18:56.414Z,13.18
2023-02-22T18:21:26.874Z,13.12
2023-02-22T18:23:55.322Z,13.13
2023-02-22T18:26:25.194Z,13.14
2023-02-22T18:28:54.759Z,13.04
2023-02-22T18:31:25.197Z,13.06
2023-02-22T18:33:55.577Z,13.03
2023-02-22T18:36:23.859Z,13.04
2023-02-22T18:38:53.516Z,12.97
2023-02-22T18:41:25.801Z,12.97
2023-02-22T18:43:55.303Z,13.03
2023-02-22T18:46:25.203Z,12.97
2023-02-22T18:48:57.132Z,12.94
2023-02-22T18:51:25.801Z,12.96
2023-02-22T18:54:00.385Z,12.97
2023-02-22T18:56:30.916Z,12.94
2023-02-22T18:59:00.512Z,12.87
2023-02-22T19:01:29.917Z,12.90
2023-02-22T19:03:59.627Z,12.91
2023-02-22T19:06:27.747Z,12.87
2023-02-22T19:08:55.812Z,12.85
2023-02-22T19:11:25.664Z,12.80
2023-02-22T19:13:55.488Z,12.69
2023-02-22T19:16:25.188Z,12.65
2023-02-22T19:18:57.542Z,12.64
2023-02-22T19:21:29.050Z,12.70
2023-02-22T19:23:57.420Z,12.58
2023-02-22T19:26:29.134Z,12.34
2023-02-22T19:28:59.865Z,12.31
2023-02-22T19:31:31.701Z,12.12
2023-02-22T19:34:02.390Z,12.19
2023-02-22T19:36:32.561Z,12.29
2023-02-22T19:39:02.022Z,12.17
2023-02-22T19:41:31.272Z,12.13
2023-02-22T19:44:00.226Z,12.04
2023-02-22T19:46:28.530Z,11.77
2023-02-22T19:48:56.895Z,11.94
2023-02-22T19:51:27.912Z,11.98
2023-02-22T19:54:00.649Z,12.02
2023-02-22T19:56:30.540Z,12.10
2023-02-22T19:59:01.567Z,11.99
2023-02-22T20:01:33.458Z,11.91
2023-02-22T20:04:03.855Z,12.00
2023-02-22T20:06:40.275Z,12.05
2023-02-22T20:09:12.461Z,12.03
2023-02-22T20:11:40.641Z,11.99
2023-02-22T20:14:08.847Z,12.04
2023-02-22T20:16:37.210Z,12.07
2023-02-22T20:19:05.312Z,12.08
2023-02-22T20:21:36.556Z,12.07
2023-02-22T20:24:07.760Z,12.03
2023-02-22T20:26:39.321Z,12.02
2023-02-22T20:29:09.188Z,11.91
2023-02-22T20:31:38.274Z,11.86
2023-02-22T20:34:07.175Z,12.01
2023-02-22T20:36:36.448Z,12.03
2023-02-22T20:39:07.509Z,12.04
2023-02-22T20:41:37.491Z,12.01
2023-02-22T20:44:07.021Z,11.79
2023-02-22T20:46:38.399Z,11.60
2023-02-22T20:49:08.330Z,11.64
2023-02-22T20:51:39.422Z,11.75
2023-02-22T20:54:08.644Z,11.80
2023-02-22T20:56:38.679Z,11.83
2023-02-22T20:59:06.785Z,11.66
2023-02-22T21:01:36.070Z,11.61
2023-02-22T21:04:06.348Z,11.62
2023-02-22T21:06:35.888Z,11.51
2023-02-22T21:09:07.388Z,11.51
2023-02-22T21:11:37.420Z,11.62
2023-02-22T21:14:05.505Z,11.76
2023-02-22T21:16:36.312Z,11.72
2023-02-22T21:19:06.888Z,11.52
2023-02-22T21:21:36.572Z,11.52
2023-02-22T21:24:05.118Z,11.63
2023-02-22T21:26:35.096Z,11.59
2023-02-22T21:29:07.291Z,11.42
2023-02-22T21:31:38.064Z,10.92
2023-02-22T21:34:06.326Z,11.19
2023-02-22T21:36:34.387Z,11.26
2023-02-22T21:39:08.528Z,11.25
2023-02-22T21:41:39.162Z,11.19
2023-02-22T21:44:10.489Z,11.23
2023-02-22T21:46:38.798Z,11.19
2023-02-22T21:49:06.796Z,11.21
2023-02-22T21:51:37.778Z,11.31
2023-02-22T21:54:08.400Z,11.27
2023-02-22T21:56:39.912Z,11.40
2023-02-22T21:59:12.728Z,11.49
2023-02-22T22:01:47.064Z,11.43
2023-02-22T22:04:18.976Z,11.44
2023-02-22T22:06:48.547Z,11.48
2023-02-22T22:09:20.177Z,11.46
2023-02-22T22:11:49.686Z,11.42
2023-02-22T22:14:19.945Z,11.44
2023-02-22T22:16:48.766Z,11.39
2023-02-22T22:19:17.405Z,11.25
2023-02-22T22:21:48.869Z,11.07
2023-02-22T22:24:19.979Z,11.09
2023-02-22T22:26:51.215Z,11.20
2023-02-22T22:29:20.942Z,11.31
2023-02-22T22:31:49.248Z,11.28
2023-02-22T22:34:17.484Z,11.01
2023-02-22T22:36:45.670Z,10.91
2023-02-22T22:39:14.108Z,10.85
2023-02-22T22:41:42.251Z,10.80
2023-02-22T22:44:10.516Z,10.82
2023-02-22T22:46:41.032Z,11.02
2023-02-22T22:49:10.031Z,11.25
2023-02-22T22:51:38.286Z,11.39
2023-02-22T22:54:06.824Z,11.43
2023-02-22T22:56:37.983Z,11.48
2023-02-22T22:59:08.432Z,11.58
2023-02-22T23:01:39.502Z,11.55
2023-02-22T23:04:10.786Z,11.59
2023-02-22T23:06:41.268Z,11.60
2023-02-22T23:09:12.318Z,11.45
2023-02-22T23:11:44.825Z,11.10
2023-02-22T23:14:15.025Z,11.13
2023-02-22T23:16:45.131Z,11.28
2023-02-22T23:19:15.739Z,11.44
2023-02-22T23:21:44.762Z,11.54
2023-02-22T23:24:16.346Z,11.72
2023-02-22T23:26:48.703Z,11.79
2023-02-22T23:29:18.293Z,11.83
2023-02-22T23:31:48.482Z,11.74
2023-02-22T23:34:21.341Z,11.69
2023-02-22T23:36:54.307Z,11.55
2023-02-22T23:39:24.297Z,11.52
2023-02-22T23:41:52.764Z,11.54
2023-02-22T23:44:21.857Z,11.58
2023-02-22T23:46:55.293Z,11.55
2023-02-22T23:49:27.628Z,11.56
2023-02-22T23:51:55.842Z,11.54
2023-02-22T23:54:24.817Z,11.36
2023-02-22T23:56:57.006Z,11.34
2023-02-22T23:59:26.327Z,11.39
